createdAt,value
2019-05-13T00:00:15.810Z,14.83
2019-05-13T00:02:44.217Z,19.10
2019-05-13T00:05:14.675Z,21.17
2019-05-13T00:07:43.940Z,20.12
2019-05-13T00:10:14.786Z,15.53
2019-05-13T00:12:44.650Z,20.30
2019-05-13T00:15:13.906Z,14.20
2019-05-13T00:17:44.686Z,17.85
2019-05-13T00:20:14.058Z,20.68
2019-05-13T00:22:44.750Z,14.78
2019-05-13T00:25:14.536Z,22.02
2019-05-13T00:27:44.519Z,21.70
2019-05-13T00:30:14.445Z,17.97
2019-05-13T00:32:44.547Z,16.07
2019-05-13T00:35:14.264Z,21.23
2019-05-13T00:37:44.275Z,14.30
2019-05-13T00:40:14.342Z,23.67
2019-05-13T00:42:44.163Z,15.63
2019-05-13T00:45:14.563Z,16.17
2019-05-13T00:47:43.811Z,16.02
2019-05-13T00:50:14.278Z,12.43
2019-05-13T00:52:44.928Z,17.70
2019-05-13T00:55:14.773Z,21.50
2019-05-13T00:57:43.813Z,19.10
2019-05-13T01:00:14.146Z,18.42
2019-05-13T01:02:44.702Z,19.77
2019-05-13T01:05:14.730Z,16.55
2019-05-13T01:07:44.311Z,11.35
2019-05-13T01:10:13.618Z,14.65
2019-05-13T01:12:44.117Z,14.40
2019-05-13T01:15:13.461Z,23.10
2019-05-13T01:17:44.454Z,16.57
2019-05-13T01:20:14.408Z,11.28
2019-05-13T01:22:44.077Z,17.05
2019-05-13T01:25:14.425Z,17.80
2019-05-13T01:27:44.161Z,17.25
2019-05-13T01:30:13.506Z,16.87
2019-05-13T01:32:44.605Z,17.23
2019-05-13T01:35:14.582Z,12.63
2019-05-13T01:37:45.908Z,18.17
2019-05-13T01:40:13.579Z,28.38
2019-05-13T01:42:44.177Z,21.27
2019-05-13T01:45:13.662Z,10.32
2019-05-13T01:47:44.014Z,16.23
2019-05-13T01:50:14.305Z,26.97
2019-05-13T01:52:44.495Z,19.62
2019-05-13T01:55:14.617Z,19.50
2019-05-13T01:57:44.348Z,17.12
2019-05-13T02:00:14.168Z,24.02
2019-05-13T02:02:44.422Z,11.65
2019-05-13T02:05:14.073Z,14.05
2019-05-13T02:07:56.098Z,16.00
2019-05-13T02:10:14.834Z,13.13
2019-05-13T02:12:44.665Z,15.63
2019-05-13T02:15:14.542Z,19.77
2019-05-13T02:17:44.816Z,15.25
2019-05-13T02:20:14.757Z,17.05
2019-05-13T02:22:44.571Z,18.45
2019-05-13T02:25:14.693Z,12.40
2019-05-13T02:27:43.999Z,13.40
2019-05-13T02:30:16.256Z,21.23
2019-05-13T02:32:44.271Z,9.00
2019-05-13T02:35:14.397Z,14.25
2019-05-13T02:37:43.848Z,14.98
2019-05-13T02:40:13.950Z,16.95
2019-05-13T02:42:43.687Z,20.57
2019-05-13T02:45:12.731Z,15.30
2019-05-13T02:47:44.129Z,16.97
2019-05-13T02:50:14.060Z,21.27
2019-05-13T02:52:44.336Z,15.98
2019-05-13T02:55:16.755Z,16.35
2019-05-13T02:57:45.166Z,16.12
2019-05-13T03:00:15.485Z,19.32
2019-05-13T03:02:44.285Z,17.98
2019-05-13T03:05:14.003Z,15.68
2019-05-13T03:07:43.034Z,13.50
2019-05-13T03:10:13.526Z,13.18
2019-05-13T03:12:42.875Z,14.85
2019-05-13T03:15:13.243Z,14.00
2019-05-13T03:17:52.909Z,14.95
2019-05-13T03:20:23.035Z,15.95
2019-05-13T03:22:52.674Z,16.07
2019-05-13T03:25:22.706Z,11.12
2019-05-13T03:27:54.214Z,17.32
2019-05-13T03:30:25.131Z,9.68
2019-05-13T03:32:59.050Z,16.57
2019-05-13T03:35:26.726Z,17.05
2019-05-13T03:37:53.063Z,17.55
2019-05-13T03:40:23.062Z,18.70
2019-05-13T03:42:53.510Z,16.55
2019-05-13T03:45:24.606Z,14.83
2019-05-13T03:50:22.676Z,22.60
2019-05-13T03:52:52.571Z,17.10
2019-05-13T03:55:22.943Z,17.60
2019-05-13T03:57:53.396Z,19.25
2019-05-13T04:00:23.530Z,18.12
2019-05-13T04:02:52.913Z,13.30
2019-05-13T04:05:22.827Z,14.58
2019-05-13T04:07:52.477Z,19.20
2019-05-13T04:10:22.799Z,20.72
2019-05-13T04:12:52.695Z,13.88
2019-05-13T04:15:23.808Z,23.50
2019-05-13T04:20:23.469Z,22.65
2019-05-13T04:22:53.216Z,16.42
2019-05-13T04:25:23.475Z,25.10
2019-05-13T04:27:53.395Z,20.37
2019-05-13T04:30:22.967Z,12.60
2019-05-13T04:32:53.540Z,14.33
2019-05-13T04:35:23.923Z,15.03
2019-05-13T04:37:53.074Z,21.80
2019-05-13T04:40:23.195Z,15.00
2019-05-13T04:42:53.582Z,23.85
2019-05-13T04:45:23.820Z,20.75
2019-05-13T04:47:52.926Z,14.00
2019-05-13T04:50:22.602Z,27.42
2019-05-13T04:52:52.760Z,18.13
2019-05-13T04:55:23.217Z,14.78
2019-05-13T04:57:53.220Z,19.48
2019-05-13T05:00:49.892Z,23.15
2019-05-13T05:03:33.171Z,21.07
2019-05-13T05:05:59.241Z,29.85
2019-05-13T05:08:41.976Z,26.95
2019-05-13T05:11:42.395Z,16.70
2019-05-13T05:14:14.993Z,25.23
2019-05-13T05:17:03.251Z,21.02
2019-05-13T05:20:07.374Z,20.15
2019-05-13T05:22:44.526Z,20.15
2019-05-13T05:25:24.963Z,19.02
2019-05-13T05:28:11.514Z,21.33
2019-05-13T05:30:59.372Z,17.30
2019-05-13T05:33:51.657Z,14.68
2019-05-13T05:36:56.287Z,20.60
2019-05-13T05:39:26.345Z,26.45
2019-05-13T05:41:57.061Z,15.30
2019-05-13T05:44:32.125Z,24.60
2019-05-13T05:47:02.829Z,18.10
2019-05-13T05:49:32.187Z,27.85
2019-05-13T05:52:02.991Z,21.93
2019-05-13T05:57:02.547Z,25.85
2019-05-13T05:59:32.140Z,26.05
2019-05-13T06:02:01.988Z,26.82
2019-05-13T06:04:32.476Z,20.20
2019-05-13T06:07:03.158Z,22.48
2019-05-13T06:09:32.384Z,28.95
2019-05-13T06:12:01.703Z,25.20
2019-05-13T06:14:32.774Z,20.48
2019-05-13T06:17:02.829Z,38.17
2019-05-13T06:19:32.168Z,26.05
2019-05-13T06:22:02.208Z,28.30
2019-05-13T06:24:31.453Z,20.65
2019-05-13T06:27:01.491Z,14.47
2019-05-13T06:29:32.039Z,24.30
2019-05-13T06:32:15.189Z,18.60
2019-05-13T06:34:33.146Z,16.90
2019-05-13T06:37:02.060Z,21.40
2019-05-13T06:39:32.086Z,22.55
2019-05-13T06:42:02.668Z,20.50
2019-05-13T06:44:31.646Z,21.95
2019-05-13T06:47:02.576Z,29.20
2019-05-13T06:49:32.222Z,33.10
2019-05-13T06:52:01.775Z,27.65
2019-05-13T06:54:33.394Z,20.48
2019-05-13T06:57:05.313Z,18.35
2019-05-13T06:59:33.517Z,24.65
2019-05-13T07:02:02.418Z,27.45
2019-05-13T07:04:32.679Z,22.58
2019-05-13T07:07:12.281Z,17.02
2019-05-13T07:09:33.819Z,18.67
2019-05-13T07:14:32.733Z,21.73
2019-05-13T07:17:02.160Z,15.08
2019-05-13T07:19:32.373Z,14.63
2019-05-13T07:22:02.770Z,20.57
2019-05-13T07:24:32.219Z,19.35
2019-05-13T07:27:01.873Z,21.27
2019-05-13T07:29:32.564Z,21.52
2019-05-13T07:32:01.718Z,12.13
2019-05-13T07:34:33.696Z,12.70
2019-05-13T07:37:02.036Z,19.73
2019-05-13T07:39:32.674Z,16.02
2019-05-13T07:44:32.378Z,21.73
2019-05-13T07:47:03.491Z,15.90
2019-05-13T07:49:31.671Z,16.25
2019-05-13T07:52:01.666Z,16.25
2019-05-13T07:54:32.594Z,10.53
2019-05-13T07:57:01.939Z,19.75
2019-05-13T07:59:31.841Z,12.23
2019-05-13T08:02:02.037Z,14.38
2019-05-13T08:04:33.278Z,18.00
2019-05-13T08:07:01.975Z,15.38
2019-05-13T08:09:31.835Z,12.60
2019-05-13T08:12:09.904Z,13.13
2019-05-13T08:14:32.613Z,11.00
2019-05-13T08:17:02.632Z,12.88
2019-05-13T08:19:32.604Z,13.45
2019-05-13T08:22:05.310Z,12.03
2019-05-13T08:24:33.764Z,15.58
2019-05-13T08:27:02.565Z,6.12
2019-05-13T08:29:32.827Z,10.78
2019-05-13T08:32:02.805Z,14.83
2019-05-13T08:34:32.929Z,18.50
2019-05-13T08:37:02.877Z,11.33
2019-05-13T08:39:36.573Z,15.83
2019-05-13T08:42:12.814Z,20.68
2019-05-13T08:44:32.497Z,9.08
2019-05-13T08:47:03.024Z,9.63
2019-05-13T08:49:32.630Z,13.15
2019-05-13T08:52:01.734Z,11.57
2019-05-13T08:54:32.885Z,14.75
2019-05-13T08:57:02.882Z,7.00
2019-05-13T08:59:31.752Z,11.20
2019-05-13T09:02:02.958Z,7.72
2019-05-13T09:04:31.566Z,10.60
2019-05-13T09:07:02.172Z,10.00
2019-05-13T09:09:31.375Z,8.68
2019-05-13T09:12:02.372Z,10.13
2019-05-13T09:14:32.611Z,13.03
2019-05-13T09:17:02.132Z,11.22
2019-05-13T09:19:32.201Z,11.90
2019-05-13T09:22:03.350Z,10.53
2019-05-13T09:27:05.581Z,5.28
2019-05-13T09:29:33.999Z,15.08
2019-05-13T09:32:03.779Z,11.25
2019-05-13T09:34:33.047Z,10.00
2019-05-13T09:37:02.755Z,11.05
2019-05-13T09:39:32.282Z,6.83
2019-05-13T09:42:02.702Z,10.58
2019-05-13T09:44:32.841Z,6.80
2019-05-13T09:47:02.512Z,11.48
2019-05-13T09:49:32.874Z,13.27
2019-05-13T09:52:01.851Z,8.88
2019-05-13T09:54:32.524Z,7.42
2019-05-13T09:57:01.693Z,6.20
2019-05-13T09:59:31.779Z,6.30
2019-05-13T10:02:02.875Z,7.20
2019-05-13T10:04:31.793Z,13.98
2019-05-13T10:07:02.273Z,11.70
2019-05-13T10:09:32.659Z,4.58
2019-05-13T10:12:03.149Z,5.78
2019-05-13T10:14:32.776Z,12.05
2019-05-13T10:17:05.778Z,9.45
2019-05-13T10:19:32.232Z,11.15
2019-05-13T10:22:00.940Z,6.53
2019-05-13T10:24:29.528Z,9.53
2019-05-13T10:26:58.010Z,3.72
2019-05-13T10:29:26.448Z,10.13
2019-05-13T10:31:54.889Z,4.90
2019-05-13T10:34:23.465Z,5.47
2019-05-13T10:36:52.197Z,7.83
2019-05-13T10:39:22.391Z,8.80
2019-05-13T10:41:52.341Z,7.50
2019-05-13T10:44:20.975Z,9.70
2019-05-13T10:46:52.005Z,4.53
2019-05-13T10:49:22.159Z,3.10
2019-05-13T10:51:52.666Z,7.70
2019-05-13T10:54:21.846Z,11.63
2019-05-13T10:56:53.209Z,6.42
2019-05-13T10:59:22.975Z,5.58
2019-05-13T11:01:51.597Z,8.35
2019-05-13T11:04:22.221Z,5.37
2019-05-13T11:06:52.451Z,7.17
2019-05-13T11:09:22.108Z,3.95
2019-05-13T11:11:52.867Z,9.33
2019-05-13T11:16:52.396Z,7.85
2019-05-13T11:19:23.202Z,4.83
2019-05-13T11:21:51.303Z,8.75
2019-05-13T11:24:26.807Z,8.60
2019-05-13T11:26:55.240Z,7.33
2019-05-13T11:29:23.666Z,13.18
2019-05-13T11:31:53.287Z,11.12
2019-05-13T11:34:22.389Z,8.83
2019-05-13T11:36:53.512Z,5.70
2019-05-13T11:39:22.407Z,8.03
2019-05-13T11:41:50.856Z,4.10
2019-05-13T11:44:22.578Z,4.25
2019-05-13T11:46:53.015Z,7.90
2019-05-13T11:49:20.504Z,6.17
2019-05-13T11:51:48.908Z,8.33
2019-05-13T11:54:17.344Z,7.28
2019-05-13T11:56:49.728Z,7.42
2019-05-13T11:59:16.043Z,6.92
2019-05-13T12:01:44.487Z,11.05
2019-05-13T12:04:12.915Z,2.95
2019-05-13T12:06:47.898Z,5.62
2019-05-13T12:09:13.086Z,3.27
2019-05-13T12:11:41.935Z,3.30
2019-05-13T12:14:37.484Z,7.65
2019-05-13T12:16:42.317Z,1.67
2019-05-13T12:19:11.831Z,3.95
2019-05-13T12:21:43.424Z,7.10
2019-05-13T12:24:11.410Z,3.27
2019-05-13T12:26:43.118Z,6.37
2019-05-13T12:29:17.838Z,3.12
2019-05-13T12:31:40.188Z,5.17
2019-05-13T12:34:12.755Z,3.47
2019-05-13T12:36:38.751Z,7.58
2019-05-13T12:39:07.958Z,3.60
2019-05-13T12:41:36.348Z,2.65
2019-05-13T12:44:04.900Z,4.08
2019-05-13T12:46:33.273Z,3.85
2019-05-13T12:49:03.866Z,2.37
2019-05-13T12:51:32.583Z,2.90
2019-05-13T12:54:03.751Z,6.78
2019-05-13T12:56:33.323Z,2.20
2019-05-13T12:59:02.915Z,5.97
2019-05-13T13:01:32.398Z,2.40
2019-05-13T13:04:02.207Z,3.42
2019-05-13T13:06:40.003Z,4.27
2019-05-13T13:09:00.887Z,9.15
2019-05-13T13:11:32.072Z,6.95
2019-05-13T13:14:04.053Z,6.42
2019-05-13T13:16:34.273Z,3.80
2019-05-13T13:19:02.451Z,4.90
2019-05-13T13:21:34.268Z,8.30
2019-05-13T13:26:33.758Z,3.55
2019-05-13T13:29:02.376Z,6.00
2019-05-13T13:31:33.532Z,7.55
2019-05-13T13:34:11.278Z,6.83
2019-05-13T13:36:33.572Z,6.70
2019-05-13T13:39:03.760Z,5.40
2019-05-13T13:41:32.744Z,4.87
2019-05-13T13:44:05.550Z,5.33
2019-05-13T13:46:41.170Z,5.42
2019-05-13T13:49:03.490Z,3.80
2019-05-13T13:51:34.401Z,6.42
2019-05-13T13:54:03.684Z,3.55
2019-05-13T13:56:32.782Z,2.70
2019-05-13T13:59:04.452Z,7.58
2019-05-13T14:01:33.316Z,3.40
2019-05-13T14:04:03.677Z,5.05
2019-05-13T14:07:11.709Z,4.03
2019-05-13T14:07:22.503Z,7.53
2019-05-13T14:09:01.904Z,3.08
2019-05-13T14:11:32.875Z,4.33
2019-05-13T14:14:02.147Z,7.50
2019-05-13T14:16:34.881Z,5.30
2019-05-13T14:19:00.976Z,8.15
2019-05-13T14:21:29.400Z,7.17
2019-05-13T14:23:57.811Z,4.80
2019-05-13T14:26:26.240Z,6.60
2019-05-13T14:28:54.636Z,6.15
2019-05-13T14:31:23.079Z,7.33
2019-05-13T14:33:51.993Z,14.00
2019-05-13T14:36:23.050Z,6.50
2019-05-13T14:38:52.766Z,5.42
2019-05-13T14:41:22.030Z,6.10
2019-05-13T14:43:51.715Z,4.05
2019-05-13T14:46:25.212Z,3.47
2019-05-13T14:48:50.503Z,7.30
2019-05-13T14:51:18.913Z,5.62
2019-05-13T14:53:47.347Z,6.62
2019-05-13T14:56:15.755Z,6.15
2019-05-13T14:58:44.190Z,3.08
2019-05-13T15:01:18.694Z,6.97
2019-05-13T15:03:42.772Z,7.50
2019-05-13T15:06:11.946Z,6.87
2019-05-13T15:08:42.137Z,9.35
2019-05-13T15:11:12.649Z,9.35
2019-05-13T15:13:42.582Z,5.37
2019-05-13T15:16:11.290Z,5.42
2019-05-13T15:18:41.656Z,3.60
2019-05-13T15:21:12.237Z,6.10
2019-05-13T15:23:42.257Z,9.75
2019-05-13T15:26:12.097Z,7.12
2019-05-13T15:28:42.171Z,5.20
2019-05-13T15:31:11.913Z,3.42
2019-05-13T15:33:41.602Z,5.75
2019-05-13T15:36:12.132Z,9.53
2019-05-13T15:38:41.409Z,5.72
2019-05-13T15:41:15.219Z,7.05
2019-05-13T15:43:42.181Z,6.20
2019-05-13T15:46:12.527Z,7.35
2019-05-13T15:48:42.173Z,6.62
2019-05-13T15:51:12.566Z,6.65
2019-05-13T15:53:43.570Z,6.22
2019-05-13T15:56:12.644Z,5.65
2019-05-13T15:58:44.080Z,4.72
2019-05-13T16:01:17.098Z,5.10
2019-05-13T16:03:45.551Z,4.90
2019-05-13T16:06:17.215Z,2.90
2019-05-13T16:08:57.773Z,4.80
2019-05-13T16:11:28.895Z,7.42
2019-05-13T16:13:57.418Z,3.47
2019-05-13T16:16:41.432Z,4.00
2019-05-13T16:19:08.820Z,3.83
2019-05-13T16:21:37.334Z,5.47
2019-05-13T16:24:06.102Z,4.53
2019-05-13T16:26:34.757Z,4.35
2019-05-13T16:29:03.290Z,1.75
2019-05-13T16:31:33.469Z,4.22
2019-05-13T16:34:02.051Z,5.15
2019-05-13T16:36:31.378Z,3.52
2019-05-13T16:39:02.151Z,9.23
2019-05-13T16:41:32.313Z,6.42
2019-05-13T16:44:04.089Z,7.22
2019-05-13T16:46:32.646Z,3.33
2019-05-13T16:49:02.473Z,4.17
2019-05-13T16:51:35.131Z,4.33
2019-05-13T16:54:03.587Z,2.45
2019-05-13T16:56:41.830Z,8.28
2019-05-13T16:59:13.648Z,2.30
2019-05-13T17:04:54.687Z,1.95
2019-05-13T17:07:23.276Z,6.50
2019-05-13T17:09:53.406Z,2.77
2019-05-13T17:12:45.691Z,3.12
2019-05-13T17:15:17.958Z,3.55
2019-05-13T17:18:11.568Z,7.05
2019-05-13T17:20:27.613Z,5.10
2019-05-13T17:23:03.260Z,6.80
2019-05-13T17:25:32.738Z,7.17
2019-05-13T17:28:05.273Z,8.68
2019-05-13T17:31:11.539Z,3.33
2019-05-13T17:33:52.170Z,5.20
2019-05-13T17:36:25.733Z,5.28
2019-05-13T17:38:55.976Z,12.53
2019-05-13T17:41:31.948Z,8.10
2019-05-13T17:44:02.227Z,5.85
2019-05-13T17:46:32.468Z,12.18
2019-05-13T17:49:03.760Z,7.85
2019-05-13T17:51:32.239Z,5.87
2019-05-13T17:54:01.462Z,3.15
2019-05-13T17:56:34.749Z,3.00
2019-05-13T17:59:11.985Z,6.70
2019-05-13T18:01:41.915Z,4.30
2019-05-13T18:04:22.654Z,3.57
2019-05-13T18:07:01.766Z,4.28
2019-05-13T18:09:32.550Z,8.93
2019-05-13T18:12:08.569Z,5.60
2019-05-13T18:14:41.236Z,5.75
2019-05-13T18:17:23.966Z,9.93
2019-05-13T18:20:02.672Z,12.10
2019-05-13T18:22:37.474Z,8.20
2019-05-13T18:25:12.910Z,4.22
2019-05-13T18:27:41.773Z,17.92
2019-05-13T18:30:11.696Z,9.18
2019-05-13T18:32:47.650Z,2.60
2019-05-13T18:35:16.170Z,7.72
2019-05-13T18:37:44.708Z,4.47
2019-05-13T18:40:13.604Z,4.55
2019-05-13T18:42:44.836Z,3.85
2019-05-13T18:45:13.445Z,4.00
2019-05-13T18:47:41.952Z,4.25
2019-05-13T18:50:12.476Z,7.90
2019-05-13T18:52:43.702Z,3.00
2019-05-13T18:55:15.711Z,8.88
2019-05-13T18:57:48.336Z,4.65
2019-05-13T19:00:16.853Z,5.45
2019-05-13T19:02:45.298Z,6.55
2019-05-13T19:05:13.921Z,3.95
2019-05-13T19:07:44.830Z,5.12
2019-05-13T19:12:45.526Z,2.65
2019-05-13T19:15:14.235Z,5.50
2019-05-13T19:17:42.701Z,4.67
2019-05-13T19:20:11.752Z,7.47
2019-05-13T19:22:41.290Z,2.92
2019-05-13T19:25:11.934Z,4.90
2019-05-13T19:27:41.347Z,3.95
2019-05-13T19:30:12.249Z,4.97
2019-05-13T19:32:41.692Z,4.47
2019-05-13T19:35:11.640Z,4.78
2019-05-13T19:37:42.519Z,3.80
2019-05-13T19:40:12.726Z,5.22
2019-05-13T19:42:41.849Z,4.33
2019-05-13T19:45:12.119Z,5.92
2019-05-13T19:47:41.792Z,4.65
2019-05-13T19:50:10.708Z,14.30
2019-05-13T19:52:41.304Z,6.37
2019-05-13T19:55:09.354Z,8.83
2019-05-13T19:57:37.780Z,5.37
2019-05-13T20:00:10.587Z,4.30
2019-05-13T20:02:39.222Z,4.95
2019-05-13T20:05:08.128Z,4.05
2019-05-13T20:07:36.547Z,6.33
2019-05-13T20:10:07.973Z,4.67
2019-05-13T20:12:36.353Z,3.22
2019-05-13T20:15:06.223Z,4.00
2019-05-13T20:17:34.706Z,3.12
2019-05-13T20:20:03.192Z,3.35
2019-05-13T20:22:32.845Z,5.00
2019-05-13T20:25:01.317Z,2.75
2019-05-13T20:27:31.810Z,4.55
2019-05-13T20:30:01.594Z,6.97
2019-05-13T20:32:32.405Z,4.50
2019-05-13T20:35:02.171Z,7.25
2019-05-13T20:37:32.188Z,6.63
2019-05-13T20:40:02.266Z,6.43
2019-05-13T20:42:33.023Z,4.70
2019-05-13T20:45:02.419Z,4.15
2019-05-13T20:47:33.283Z,6.72
2019-05-13T20:50:02.321Z,1.77
2019-05-13T20:52:31.533Z,6.73
2019-05-13T20:55:01.849Z,7.53
2019-05-13T20:57:32.215Z,5.10
2019-05-13T21:00:02.357Z,11.83
2019-05-13T21:02:31.954Z,5.20
2019-05-13T21:05:01.610Z,3.37
2019-05-13T21:07:32.003Z,5.08
2019-05-13T21:10:01.437Z,5.30
2019-05-13T21:12:31.402Z,2.92
2019-05-13T21:15:01.406Z,5.27
2019-05-13T21:17:30.034Z,6.95
2019-05-13T21:20:01.009Z,2.77
2019-05-13T21:22:28.646Z,6.22
2019-05-13T21:24:57.076Z,6.70
2019-05-13T21:27:25.501Z,7.60
2019-05-13T21:29:53.926Z,2.70
2019-05-13T21:32:22.356Z,6.08
2019-05-13T21:34:51.600Z,8.48
2019-05-13T21:37:22.063Z,2.80
2019-05-13T21:39:51.680Z,9.05
2019-05-13T21:42:21.588Z,4.10
2019-05-13T21:44:51.284Z,6.67
2019-05-13T21:47:21.842Z,8.83
2019-05-13T21:49:51.513Z,9.83
2019-05-13T21:52:23.614Z,4.62
2019-05-13T21:54:51.604Z,7.53
2019-05-13T21:57:20.092Z,8.67
2019-05-13T21:59:48.513Z,7.80
2019-05-13T22:02:16.949Z,4.58
2019-05-13T22:04:45.368Z,6.83
2019-05-13T22:07:13.795Z,5.62
2019-05-13T22:09:42.403Z,7.45
2019-05-13T22:12:10.874Z,5.53
2019-05-13T22:14:41.316Z,6.00
2019-05-13T22:17:12.261Z,6.35
2019-05-13T22:19:41.966Z,10.15
2019-05-13T22:22:11.633Z,7.75
2019-05-13T22:24:41.921Z,8.00
2019-05-13T22:27:12.996Z,6.87
2019-05-13T22:29:42.007Z,5.15
2019-05-13T22:32:11.284Z,8.13
2019-05-13T22:34:41.774Z,7.50
2019-05-13T22:37:11.711Z,4.78
2019-05-13T22:39:42.276Z,5.12
2019-05-13T22:42:12.422Z,5.75
2019-05-13T22:44:41.796Z,5.55
2019-05-13T22:47:12.977Z,5.67
2019-05-13T22:49:41.416Z,4.70
2019-05-13T22:52:11.445Z,7.50
2019-05-13T22:54:41.244Z,9.20
2019-05-13T22:57:12.007Z,6.75
2019-05-13T22:59:41.581Z,7.40
2019-05-13T23:02:10.160Z,5.72
2019-05-13T23:04:38.581Z,5.35
2019-05-13T23:07:07.010Z,6.45
2019-05-13T23:09:35.441Z,4.05
2019-05-13T23:12:03.876Z,9.65
2019-05-13T23:14:32.314Z,6.17
2019-05-13T23:17:02.138Z,4.60
2019-05-13T23:19:32.343Z,14.15
2019-05-13T23:22:01.615Z,10.48
2019-05-13T23:24:31.147Z,3.92
2019-05-13T23:27:01.951Z,7.95
2019-05-13T23:29:31.757Z,5.50
2019-05-13T23:32:01.497Z,6.12
2019-05-13T23:34:31.753Z,8.90
2019-05-13T23:37:00.154Z,4.30
2019-05-13T23:39:28.585Z,8.25
2019-05-13T23:41:57.002Z,7.80
2019-05-13T23:44:28.226Z,5.53
2019-05-13T23:46:55.551Z,6.67
2019-05-13T23:49:23.962Z,16.32
2019-05-13T23:51:52.405Z,8.73
2019-05-13T23:54:21.348Z,13.68
2019-05-13T23:56:49.918Z,9.98
2019-05-13T23:59:18.334Z,10.60
